Time;durP1;ratioP1;P1;durP2;ratioP2;P2;SDS_P1;SDS_P2;PMS_P1;PMS_P2;Temp;Humidity;BMP_temperature;BMP_pressure;BME280_temperature;BME280_humidity;BME280_pressure;Samples;Min_cycle;Max_cycle;Signal;HPM_P1;HPM_P2
2021/07/26 00:01:15;;;;;;;0.60;0.60;;;14.00;99.90;;;;;;5019549;28;20197;-79
2021/07/26 00:03:42;;;;;;;0.82;0.75;;;13.90;99.90;;;;;;5013448;28;20214;-80
2021/07/26 00:06:08;;;;;;;0.50;0.50;;;13.90;99.90;;;;;;5015921;28;20205;-79
2021/07/26 00:08:35;;;;;;;0.52;0.52;;;13.80;99.90;;;;;;5015854;28;20205;-79
2021/07/26 00:11:06;;;;;;;1.17;0.70;;;13.80;99.90;;;;;;5021295;28;20190;-79
2021/07/26 00:13:32;;;;;;;0.40;0.40;;;13.80;99.90;;;;;;5013322;28;20210;-80
2021/07/26 00:15:58;;;;;;;1.10;1.00;;;13.80;99.90;;;;;;5013921;28;20206;-79
2021/07/26 00:18:27;;;;;;;0.60;0.60;;;13.70;99.90;;;;;;5015163;28;20198;-79
2021/07/26 00:20:53;;;;;;;0.60;0.60;;;13.70;99.90;;;;;;5014626;28;20209;-80
2021/07/26 00:23:20;;;;;;;0.60;0.60;;;13.70;99.90;;;;;;5015604;28;20576;-78
2021/07/26 00:25:46;;;;;;;0.52;0.52;;;13.70;99.90;;;;;;5011700;28;20222;-79
2021/07/26 00:28:12;;;;;;;0.40;0.40;;;13.60;99.90;;;;;;5012643;28;20210;-79
2021/07/26 00:30:38;;;;;;;4.57;0.88;;;13.60;99.90;;;;;;5012231;28;20740;-79
2021/07/26 00:36:29;;;;;;;0.50;0.50;;;13.60;99.90;;;;;;5005708;28;20610;-78
2021/07/26 00:38:55;;;;;;;0.70;0.70;;;13.50;99.90;;;;;;5015281;28;20225;-79
2021/07/26 00:41:22;;;;;;;0.85;0.85;;;13.50;99.90;;;;;;5011812;28;20203;-78
2021/07/26 00:43:49;;;;;;;1.23;1.13;;;13.60;99.90;;;;;;5011536;28;20666;-78
2021/07/26 00:46:15;;;;;;;0.65;0.65;;;13.60;99.90;;;;;;5016996;28;20233;-78
2021/07/26 00:48:40;;;;;;;0.60;0.60;;;13.60;99.90;;;;;;5020022;28;20234;-78
2021/07/26 00:51:06;;;;;;;0.85;0.80;;;13.50;99.90;;;;;;5020289;28;20210;-78
2021/07/26 00:53:33;;;;;;;0.50;0.50;;;13.50;99.90;;;;;;5022576;28;20209;-79
2021/07/26 00:55:59;;;;;;;0.50;0.50;;;13.50;99.90;;;;;;5017503;28;20583;-78
2021/07/26 00:58:24;;;;;;;0.80;0.80;;;13.40;99.90;;;;;;5016868;28;20202;-79
2021/07/26 01:00:50;;;;;;;0.45;0.45;;;13.50;99.90;;;;;;5017040;28;20225;-78
2021/07/26 01:05:50;;;;;;;0.70;0.70;;;13.50;99.90;;;;;;5035527;28;20228;-68
2021/07/26 01:08:16;;;;;;;0.60;0.60;;;13.50;99.90;;;;;;5042401;28;20219;-69
2021/07/26 01:10:41;;;;;;;0.55;0.55;;;13.50;99.90;;;;;;5043189;28;20254;-68
2021/07/26 01:13:07;;;;;;;0.50;0.50;;;13.50;99.90;;;;;;5044170;28;20197;-70
2021/07/26 01:15:33;;;;;;;0.50;0.50;;;13.50;99.90;;;;;;5025727;28;20614;-69
2021/07/26 01:18:21;;;;;;;1.58;0.95;;;13.50;99.90;;;;;;5045040;28;20197;-69
2021/07/26 01:20:58;;;;;;;0.40;0.40;;;13.50;99.90;;;;;;5043547;28;20805;-68
2021/07/26 01:23:26;;;;;;;0.50;0.50;;;13.50;99.90;;;;;;5043545;28;20201;-68
2021/07/26 01:25:52;;;;;;;0.70;0.70;;;13.50;99.90;;;;;;5025977;28;20243;-69
2021/07/26 01:28:19;;;;;;;0.50;0.50;;;13.50;99.90;;;;;;5037884;28;20309;-70
2021/07/26 01:30:46;;;;;;;0.50;0.50;;;13.60;99.90;;;;;;5042030;28;20212;-70
2021/07/26 01:33:14;;;;;;;1.05;0.90;;;13.60;99.90;;;;;;5025745;28;20811;-70
2021/07/26 01:35:40;;;;;;;0.55;0.55;;;13.60;99.90;;;;;;5041224;28;20340;-69
2021/07/26 01:38:07;;;;;;;1.27;0.90;;;13.50;99.90;;;;;;5043443;28;20557;-68
2021/07/26 01:40:34;;;;;;;1.17;0.68;;;13.60;99.90;;;;;;5042527;28;21146;-70
2021/07/26 01:43:06;;;;;;;0.50;0.50;;;13.50;99.90;;;;;;5024035;28;20193;-69
2021/07/26 01:45:32;;;;;;;0.40;0.40;;;13.50;99.90;;;;;;5042005;28;20190;-69
2021/07/26 01:48:03;;;;;;;0.60;0.60;;;13.50;99.90;;;;;;5041605;28;20414;-69
2021/07/26 01:50:35;;;;;;;0.40;0.40;;;13.50;99.90;;;;;;5041533;28;20201;-68
2021/07/26 01:53:00;;;;;;;1.70;0.80;;;13.50;99.90;;;;;;5041358;28;20197;-68
2021/07/26 01:55:26;;;;;;;0.50;0.50;;;13.40;99.90;;;;;;5040975;28;20526;-68
2021/07/26 01:57:53;;;;;;;1.08;0.98;;;13.40;99.90;;;;;;5042406;28;20197;-68
2021/07/26 02:00:19;;;;;;;0.52;0.52;;;13.30;99.90;;;;;;5040534;28;20252;-69
2021/07/26 02:02:44;;;;;;;0.50;0.50;;;13.30;99.90;;;;;;5039774;28;20309;-70
2021/07/26 02:05:11;;;;;;;0.50;0.50;;;13.30;99.90;;;;;;5042109;28;20308;-69
2021/07/26 02:07:36;;;;;;;0.52;0.52;;;13.20;99.90;;;;;;5023563;28;20204;-68
2021/07/26 02:10:03;;;;;;;0.52;0.52;;;13.20;99.90;;;;;;5043515;28;20556;-67
2021/07/26 02:12:29;;;;;;;0.50;0.50;;;13.20;99.90;;;;;;5042265;28;20197;-68
2021/07/26 02:14:54;;;;;;;0.63;0.63;;;13.10;99.90;;;;;;5041224;28;20224;-68
2021/07/26 02:17:20;;;;;;;0.50;0.50;;;13.00;99.90;;;;;;5043885;28;20209;-68
2021/07/26 02:19:46;;;;;;;1.17;0.93;;;13.00;99.90;;;;;;5042118;28;20438;-69
2021/07/26 02:22:13;;;;;;;0.45;0.45;;;13.00;99.90;;;;;;5042471;28;20229;-68
2021/07/26 02:24:38;;;;;;;0.60;0.60;;;12.90;99.90;;;;;;5040798;28;20201;-69
2021/07/26 02:27:04;;;;;;;0.50;0.50;;;12.90;99.90;;;;;;5043147;28;20722;-68
2021/07/26 02:29:30;;;;;;;0.50;0.50;;;12.80;99.90;;;;;;5024312;28;20295;-69
2021/07/26 02:31:56;;;;;;;0.95;0.90;;;12.80;99.90;;;;;;5045114;28;20288;-70
2021/07/26 02:34:21;;;;;;;1.20;1.05;;;12.70;99.90;;;;;;5044080;28;20214;-69
2021/07/26 02:36:47;;;;;;;0.40;0.40;;;12.70;99.90;;;;;;5046083;28;20309;-70
2021/07/26 02:39:13;;;;;;;0.57;0.57;;;12.70;99.90;;;;;;5046856;28;20202;-67
2021/07/26 02:41:43;;;;;;;0.80;0.80;;;12.70;99.90;;;;;;5029085;28;20227;-69
2021/07/26 02:44:09;;;;;;;0.50;0.50;;;12.60;99.90;;;;;;5027847;28;20282;-69
2021/07/26 02:46:34;;;;;;;1.63;1.50;;;12.60;99.90;;;;;;5028887;28;20273;-68
2021/07/26 02:49:00;;;;;;;1.00;0.93;;;12.60;99.90;;;;;;5044955;28;20202;-68
2021/07/26 02:51:26;;;;;;;0.57;0.57;;;12.60;99.90;;;;;;5042703;28;20297;-69
2021/07/26 02:53:51;;;;;;;0.60;0.60;;;12.60;99.90;;;;;;5045299;28;20667;-67
2021/07/26 02:56:17;;;;;;;0.60;0.60;;;12.60;99.90;;;;;;5043865;28;20194;-69
2021/07/26 02:58:43;;;;;;;0.60;0.60;;;12.60;99.90;;;;;;5045994;28;20687;-68
2021/07/26 03:01:10;;;;;;;0.80;0.80;;;12.60;99.90;;;;;;5045945;28;20526;-70
2021/07/26 03:03:36;;;;;;;0.55;0.55;;;12.60;99.90;;;;;;5043600;28;20351;-70
2021/07/26 03:06:01;;;;;;;1.15;1.10;;;12.50;99.90;;;;;;5043060;28;20297;-67
2021/07/26 03:08:29;;;;;;;0.50;0.50;;;12.60;99.90;;;;;;5026595;28;20616;-70
2021/07/26 03:11:00;;;;;;;0.50;0.50;;;12.60;99.90;;;;;;5043909;28;20208;-70
2021/07/26 03:13:26;;;;;;;0.68;0.68;;;12.50;99.90;;;;;;5044630;28;20244;-69
2021/07/26 03:15:52;;;;;;;1.00;0.85;;;12.60;99.90;;;;;;5023510;28;20245;-67
2021/07/26 03:18:17;;;;;;;0.60;0.60;;;12.70;99.90;;;;;;5042992;28;20194;-68
2021/07/26 03:20:46;;;;;;;0.68;0.68;;;12.70;99.90;;;;;;5041990;28;20651;-69
2021/07/26 03:23:12;;;;;;;0.82;0.82;;;12.80;99.90;;;;;;5047272;28;20585;-68
2021/07/26 03:25:42;;;;;;;0.50;0.50;;;13.00;99.90;;;;;;5025274;28;20194;-69
2021/07/26 03:28:08;;;;;;;0.50;0.50;;;13.10;99.90;;;;;;5044640;28;20284;-69
2021/07/26 03:30:35;;;;;;;0.50;0.50;;;13.20;99.90;;;;;;5022723;28;20239;-69
2021/07/26 03:33:00;;;;;;;0.45;0.45;;;13.30;99.90;;;;;;5045588;28;20205;-68
2021/07/26 03:35:27;;;;;;;0.85;0.60;;;13.40;99.90;;;;;;5041199;28;20201;-68
2021/07/26 03:37:53;;;;;;;1.38;1.05;;;13.40;99.90;;;;;;5043609;28;20197;-68
2021/07/26 03:40:20;;;;;;;0.50;0.50;;;13.40;99.90;;;;;;5043616;28;20197;-69
2021/07/26 03:42:46;;;;;;;0.80;0.80;;;13.50;99.90;;;;;;5044932;28;20197;-68
2021/07/26 03:45:14;;;;;;;0.50;0.50;;;13.60;99.90;;;;;;5027167;28;20221;-68
2021/07/26 03:47:40;;;;;;;1.15;1.08;;;13.60;99.90;;;;;;5024754;28;20206;-68
2021/07/26 03:50:07;;;;;;;0.55;0.55;;;13.70;99.90;;;;;;5041402;28;20205;-67
2021/07/26 03:52:44;;;;;;;0.57;0.57;;;13.80;99.90;;;;;;5042538;28;20197;-68
2021/07/26 03:55:10;;;;;;;0.63;0.63;;;14.00;99.90;;;;;;5038541;28;20224;-69
2021/07/26 03:57:35;;;;;;;0.65;0.65;;;14.10;99.90;;;;;;5026165;28;20217;-68
2021/07/26 04:00:01;;;;;;;0.98;0.82;;;14.30;99.90;;;;;;5026500;28;20491;-69
2021/07/26 04:02:27;;;;;;;0.60;0.60;;;14.50;99.90;;;;;;5022112;28;20913;-68
2021/07/26 04:04:53;;;;;;;0.80;0.80;;;14.60;99.90;;;;;;5024877;28;20233;-68
2021/07/26 04:07:23;;;;;;;0.50;0.50;;;14.70;99.90;;;;;;5042423;28;20193;-68
2021/07/26 04:09:55;;;;;;;0.60;0.60;;;14.80;99.90;;;;;;5043898;28;20194;-70
2021/07/26 04:12:24;;;;;;;1.38;0.82;;;15.00;99.90;;;;;;5023120;28;20197;-68
2021/07/26 04:14:50;;;;;;;0.45;0.45;;;15.10;99.90;;;;;;5040617;28;20201;-69
2021/07/26 04:17:15;;;;;;;0.57;0.57;;;15.20;99.90;;;;;;5038893;28;20197;-69
2021/07/26 04:19:41;;;;;;;0.60;0.60;;;15.30;99.90;;;;;;5020809;28;20202;-68
2021/07/26 04:22:07;;;;;;;1.23;1.13;;;15.40;99.90;;;;;;5040612;28;20264;-68
2021/07/26 04:24:33;;;;;;;0.50;0.50;;;15.50;99.90;;;;;;5025568;28;20198;-68
2021/07/26 04:26:58;;;;;;;0.70;0.70;;;15.60;99.90;;;;;;5027605;28;20208;-69
2021/07/26 04:29:24;;;;;;;1.10;0.70;;;15.70;99.90;;;;;;5039026;28;20273;-69
2021/07/26 04:31:53;;;;;;;0.50;0.50;;;15.80;99.90;;;;;;5042464;28;20326;-66
2021/07/26 04:34:19;;;;;;;0.40;0.40;;;16.00;99.90;;;;;;5041560;28;20272;-67
2021/07/26 04:36:44;;;;;;;0.40;0.40;;;16.30;99.90;;;;;;5042996;28;20919;-67
2021/07/26 04:39:10;;;;;;;0.40;0.40;;;16.70;99.90;;;;;;5043247;28;20195;-66
2021/07/26 04:41:36;;;;;;;2.83;0.85;;;16.90;99.90;;;;;;5042169;28;20284;-67
2021/07/26 04:44:01;;;;;;;0.60;0.60;;;17.30;99.90;;;;;;5042533;28;20194;-67
2021/07/26 04:46:27;;;;;;;0.47;0.47;;;17.80;99.90;;;;;;5024619;28;20243;-68
2021/07/26 04:48:53;;;;;;;0.30;0.30;;;18.20;99.90;;;;;;5025363;28;20206;-67
2021/07/26 04:51:18;;;;;;;0.30;0.30;;;18.70;99.90;;;;;;5038634;28;20271;-67
2021/07/26 04:53:44;;;;;;;0.57;0.57;;;18.80;99.90;;;;;;5040921;28;20239;-67
2021/07/26 04:56:10;;;;;;;0.40;0.40;;;18.80;99.90;;;;;;5042554;28;20281;-70
2021/07/26 04:58:35;;;;;;;0.63;0.63;;;19.20;99.90;;;;;;5037758;28;20204;-68
2021/07/26 05:01:01;;;;;;;0.30;0.30;;;19.70;99.90;;;;;;5019241;28;20280;-69
2021/07/26 05:03:27;;;;;;;0.20;0.20;;;20.10;99.90;;;;;;5040308;28;20194;-68
2021/07/26 05:05:52;;;;;;;0.45;0.45;;;20.20;99.90;;;;;;5032772;28;20237;-68
2021/07/26 05:08:18;;;;;;;0.30;0.30;;;20.20;99.90;;;;;;5035451;28;20225;-68
2021/07/26 05:10:46;;;;;;;0.60;0.60;;;19.90;99.90;;;;;;5024618;28;20581;-68
2021/07/26 05:13:12;;;;;;;0.40;0.40;;;19.90;99.90;;;;;;5034478;28;20288;-68
2021/07/26 05:15:37;;;;;;;0.57;0.57;;;19.90;99.90;;;;;;5033250;28;20284;-69
2021/07/26 05:18:03;;;;;;;0.40;0.40;;;19.80;99.90;;;;;;5037823;28;20196;-68
2021/07/26 05:20:29;;;;;;;0.32;0.32;;;19.70;99.90;;;;;;5038543;28;20264;-68
2021/07/26 05:22:55;;;;;;;0.60;0.60;;;19.70;99.90;;;;;;5043881;28;20309;-67
2021/07/26 05:25:20;;;;;;;0.38;0.30;;;19.70;99.90;;;;;;5039659;28;20193;-67
2021/07/26 05:27:46;;;;;;;0.20;0.20;;;19.80;99.90;;;;;;5040065;28;20193;-68
2021/07/26 05:30:12;;;;;;;0.40;0.40;;;20.00;99.90;;;;;;5039472;28;20193;-69
2021/07/26 05:32:38;;;;;;;0.30;0.30;;;20.00;99.90;;;;;;5018253;28;21361;-70
2021/07/26 05:35:04;;;;;;;0.45;0.45;;;20.20;99.90;;;;;;5038680;28;20213;-68
2021/07/26 05:37:30;;;;;;;0.30;0.30;;;20.30;99.90;;;;;;5040436;28;20193;-69
2021/07/26 05:39:56;;;;;;;0.85;0.70;;;20.40;99.90;;;;;;5042974;28;20966;-71
2021/07/26 05:42:21;;;;;;;1.45;0.65;;;20.60;99.90;;;;;;5026987;28;20197;-68
2021/07/26 05:44:47;;;;;;;0.43;0.43;;;20.80;99.90;;;;;;5043933;28;20243;-69
2021/07/26 05:47:13;;;;;;;0.40;0.30;;;20.70;99.90;;;;;;5042138;28;20213;-68
2021/07/26 05:49:41;;;;;;;1.15;0.40;;;20.40;99.90;;;;;;5039014;28;20228;-69
2021/07/26 05:52:07;;;;;;;0.93;0.93;;;20.20;99.90;;;;;;5037177;28;20283;-69
2021/07/26 05:54:32;;;;;;;0.30;0.30;;;20.40;99.90;;;;;;5041591;28;20670;-69
2021/07/26 05:57:02;;;;;;;0.30;0.30;;;20.40;99.90;;;;;;5039572;28;20213;-69
2021/07/26 05:59:29;;;;;;;1.08;0.50;;;20.60;99.90;;;;;;5038617;28;20263;-69
2021/07/26 06:01:56;;;;;;;0.20;0.20;;;20.50;99.90;;;;;;5039971;28;20613;-69
2021/07/26 06:04:23;;;;;;;0.57;0.50;;;20.50;99.90;;;;;;5011542;28;20226;-69
2021/07/26 06:06:50;;;;;;;0.35;0.30;;;20.50;99.90;;;;;;4996840;28;20218;-70
2021/07/26 06:09:17;;;;;;;0.40;0.40;;;20.60;99.90;;;;;;4999693;28;20536;-69
2021/07/26 06:11:44;;;;;;;0.20;0.20;;;20.90;99.90;;;;;;4999635;28;20203;-69
2021/07/26 06:14:10;;;;;;;2.90;0.98;;;21.10;99.90;;;;;;4994991;28;20206;-70
2021/07/26 06:16:43;;;;;;;0.22;0.22;;;21.20;99.90;;;;;;4995304;28;20210;-69
2021/07/26 06:19:10;;;;;;;0.25;0.25;;;21.60;99.90;;;;;;4992911;28;20230;-69
2021/07/26 06:21:41;;;;;;;0.45;0.45;;;22.10;99.90;;;;;;4999515;28;20207;-69
2021/07/26 06:24:07;;;;;;;0.28;0.28;;;22.10;99.90;;;;;;4992868;28;20309;-69
2021/07/26 06:26:32;;;;;;;0.40;0.40;;;21.90;99.90;;;;;;4994866;28;20340;-69
2021/07/26 06:28:58;;;;;;;0.85;0.77;;;22.00;99.90;;;;;;4994057;28;20203;-70
2021/07/26 06:31:24;;;;;;;0.47;0.47;;;21.80;99.90;;;;;;4996166;28;20250;-69
2021/07/26 06:33:49;;;;;;;0.40;0.40;;;21.30;99.90;;;;;;4990993;28;20215;-69
2021/07/26 06:36:15;;;;;;;0.20;0.20;;;21.30;99.90;;;;;;4993123;28;20207;-68
2021/07/26 06:38:41;;;;;;;0.30;0.30;;;21.40;99.90;;;;;;4996991;28;20310;-69
2021/07/26 06:41:07;;;;;;;0.73;0.50;;;21.50;99.90;;;;;;4999453;28;20202;-70
2021/07/26 06:43:32;;;;;;;0.20;0.20;;;21.60;99.90;;;;;;4999516;28;20202;-68
2021/07/26 06:45:58;;;;;;;1.38;1.05;;;21.80;99.90;;;;;;4998463;28;20202;-68
2021/07/26 06:48:24;;;;;;;0.30;0.30;;;21.80;99.90;;;;;;4991749;28;20206;-68
2021/07/26 06:50:50;;;;;;;0.38;0.38;;;22.00;99.90;;;;;;4997469;28;20299;-69
2021/07/26 06:53:16;;;;;;;0.20;0.20;;;21.70;99.90;;;;;;4997277;28;20248;-69
2021/07/26 06:55:42;;;;;;;0.25;0.25;;;21.60;99.90;;;;;;4999872;28;20225;-69
2021/07/26 06:58:08;;;;;;;0.38;0.30;;;21.70;99.90;;;;;;4998092;28;21167;-68
2021/07/26 07:00:34;;;;;;;0.35;0.35;;;21.80;99.90;;;;;;4998307;28;20211;-69
2021/07/26 07:03:00;;;;;;;0.80;0.28;;;21.90;99.90;;;;;;4994842;28;20218;-69
2021/07/26 07:05:25;;;;;;;4.95;1.33;;;22.10;99.90;;;;;;5030401;28;20229;-69
2021/07/26 07:07:51;;;;;;;0.20;0.20;;;22.30;99.90;;;;;;5037541;28;20577;-68
2021/07/26 07:10:17;;;;;;;0.40;0.40;;;22.30;99.90;;;;;;5016439;28;20197;-69
2021/07/26 07:12:42;;;;;;;0.30;0.30;;;22.40;99.90;;;;;;5038664;28;20198;-67
2021/07/26 07:15:09;;;;;;;0.28;0.28;;;22.40;99.90;;;;;;5039026;28;20205;-69
2021/07/26 07:17:35;;;;;;;0.28;0.28;;;22.50;99.90;;;;;;5040109;28;20224;-70
2021/07/26 07:20:00;;;;;;;1.75;0.40;;;22.50;99.90;;;;;;5042254;28;20197;-69
2021/07/26 07:22:26;;;;;;;0.30;0.30;;;22.20;99.90;;;;;;5041344;28;20641;-71
2021/07/26 07:24:52;;;;;;;1.65;0.73;;;22.10;99.90;;;;;;5038411;28;20686;-70
2021/07/26 07:27:18;;;;;;;0.30;0.30;;;22.40;99.90;;;;;;5040586;28;20236;-71
2021/07/26 07:29:43;;;;;;;0.28;0.28;;;22.60;99.90;;;;;;5023511;28;20204;-69
2021/07/26 07:32:12;;;;;;;0.43;0.43;;;22.90;99.90;;;;;;5043512;28;20208;-70
2021/07/26 07:34:39;;;;;;;0.30;0.30;;;23.20;99.90;;;;;;5040955;28;20212;-69
2021/07/26 07:37:08;;;;;;;0.30;0.30;;;23.10;99.90;;;;;;5039229;28;20255;-69
2021/07/26 07:39:33;;;;;;;0.30;0.30;;;23.00;99.90;;;;;;5026012;28;20190;-69
2021/07/26 07:41:59;;;;;;;1.98;0.85;;;23.00;99.90;;;;;;5043216;28;20720;-70
2021/07/26 07:44:29;;;;;;;1.10;0.50;;;22.90;99.90;;;;;;5038654;28;20202;-70
2021/07/26 07:46:56;;;;;;;0.20;0.20;;;22.80;99.90;;;;;;5039159;28;20714;-70
2021/07/26 07:49:22;;;;;;;0.40;0.40;;;22.90;99.90;;;;;;5040171;28;20595;-69
2021/07/26 07:51:48;;;;;;;0.20;0.20;;;23.00;99.90;;;;;;5041339;28;20206;-69
2021/07/26 07:54:14;;;;;;;0.90;0.90;;;23.10;99.90;;;;;;5041992;28;20289;-69
2021/07/26 07:56:42;;;;;;;0.57;0.57;;;23.10;99.90;;;;;;5040923;28;20511;-70
2021/07/26 07:59:10;;;;;;;4.43;1.35;;;23.00;99.90;;;;;;5041615;28;20190;-70
2021/07/26 08:01:36;;;;;;;0.82;0.50;;;23.00;99.90;;;;;;5043268;28;20237;-70
2021/07/26 08:04:02;;;;;;;0.32;0.32;;;23.00;99.90;;;;;;5038104;28;20876;-71
2021/07/26 08:06:28;;;;;;;0.32;0.32;;;23.00;99.90;;;;;;5022697;28;20198;-71
2021/07/26 08:08:54;;;;;;;0.28;0.28;;;23.00;99.90;;;;;;5021093;28;20220;-71
2021/07/26 08:11:19;;;;;;;0.20;0.20;;;23.20;99.90;;;;;;5038843;28;20202;-71
2021/07/26 08:13:45;;;;;;;0.30;0.30;;;23.60;99.90;;;;;;5038911;28;21343;-70
2021/07/26 08:16:11;;;;;;;3.53;0.73;;;23.70;99.90;;;;;;5041277;28;20205;-70
2021/07/26 08:18:37;;;;;;;0.85;0.70;;;23.70;99.90;;;;;;5036389;28;20272;-70
2021/07/26 08:21:02;;;;;;;0.55;0.40;;;23.80;99.90;;;;;;5039233;28;20217;-70
2021/07/26 08:23:28;;;;;;;0.20;0.20;;;24.00;99.90;;;;;;5038758;28;20197;-70
2021/07/26 08:25:54;;;;;;;2.10;0.98;;;23.90;99.90;;;;;;5021652;28;20293;-70
2021/07/26 08:28:19;;;;;;;0.20;0.20;;;24.10;99.90;;;;;;5040012;28;20189;-70
2021/07/26 08:30:45;;;;;;;0.30;0.30;;;24.30;99.90;;;;;;5038819;28;20202;-70
2021/07/26 08:33:11;;;;;;;1.73;0.90;;;24.40;99.90;;;;;;5038577;28;20228;-71
2021/07/26 08:35:37;;;;;;;0.40;0.40;;;24.50;99.90;;;;;;5038796;28;20229;-70
2021/07/26 08:38:04;;;;;;;0.93;0.93;;;24.50;99.90;;;;;;5041223;28;20652;-70
2021/07/26 08:40:31;;;;;;;5.80;2.05;;;24.60;99.90;;;;;;5040637;28;20603;-70
2021/07/26 08:43:02;;;;;;;0.68;0.68;;;24.60;99.90;;;;;;5038481;28;20193;-70
2021/07/26 08:45:28;;;;;;;0.40;0.40;;;24.70;99.90;;;;;;5035016;28;20206;-70
2021/07/26 08:47:59;;;;;;;0.50;0.50;;;24.60;99.90;;;;;;5019085;28;20197;-70
2021/07/26 08:50:25;;;;;;;0.22;0.22;;;24.80;99.90;;;;;;5034446;28;20201;-70
2021/07/26 08:52:52;;;;;;;0.28;0.28;;;25.10;99.90;;;;;;5034665;28;20206;-70
2021/07/26 08:55:19;;;;;;;0.30;0.30;;;25.30;99.90;;;;;;5031532;28;20214;-71
2021/07/26 08:57:48;;;;;;;0.40;0.40;;;25.50;99.90;;;;;;5036620;28;20581;-71
2021/07/26 09:00:19;;;;;;;1.33;0.70;;;25.20;99.90;;;;;;5035608;28;20607;-71
2021/07/26 09:02:45;;;;;;;0.20;0.20;;;25.40;99.90;;;;;;5026309;28;20205;-71
2021/07/26 09:05:12;;;;;;;0.75;0.52;;;25.90;99.90;;;;;;5032226;28;20237;-70
2021/07/26 09:07:41;;;;;;;0.10;0.10;;;26.00;99.90;;;;;;5033640;28;20604;-71
2021/07/26 09:10:28;;;;;;;0.10;0.10;;;26.10;99.90;;;;;;5011745;28;20201;-71
2021/07/26 09:12:56;;;;;;;0.20;0.20;;;26.40;99.90;;;;;;5018454;28;20210;-71
2021/07/26 09:15:26;;;;;;;0.38;0.38;;;26.50;99.90;;;;;;5011272;28;20212;-71
2021/07/26 09:17:53;;;;;;;0.20;0.20;;;27.20;99.90;;;;;;5034949;28;20200;-71
2021/07/26 09:20:28;;;;;;;0.73;0.60;;;27.50;99.90;;;;;;5038870;28;20570;-71
2021/07/26 09:22:56;;;;;;;0.10;0.10;;;27.60;99.90;;;;;;5031185;28;21290;-71
2021/07/26 09:25:29;;;;;;;0.10;0.10;;;27.60;99.90;;;;;;5034912;28;20200;-71
2021/07/26 09:28:03;;;;;;;0.30;0.30;;;27.90;99.90;;;;;;5030621;28;20201;-71
2021/07/26 09:30:55;;;;;;;6.55;0.82;;;27.80;99.90;;;;;;5033128;28;20197;-71
2021/07/26 09:33:24;;;;;;;1.50;0.55;;;27.90;99.90;;;;;;5033458;28;20247;-71
2021/07/26 09:36:10;;;;;;;0.40;0.40;;;27.80;99.90;;;;;;5020349;28;20284;-71
2021/07/26 09:38:36;;;;;;;0.32;0.32;;;27.70;99.90;;;;;;5036175;28;20207;-71
2021/07/26 09:41:04;;;;;;;1.02;0.57;;;27.50;99.90;;;;;;5028887;28;20201;-71
2021/07/26 09:43:30;;;;;;;0.38;0.38;;;27.40;99.90;;;;;;5036279;28;20228;-71
2021/07/26 09:45:56;;;;;;;0.68;0.25;;;27.40;99.90;;;;;;5034296;28;20244;-70
2021/07/26 09:48:25;;;;;;;0.75;0.43;;;27.40;99.80;;;;;;5012295;28;20519;-71
2021/07/26 09:50:51;;;;;;;0.38;0.38;;;27.50;99.90;;;;;;5038293;28;20549;-71
2021/07/26 09:53:21;;;;;;;0.30;0.30;;;27.30;99.90;;;;;;5034944;28;21401;-71
2021/07/26 09:55:55;;;;;;;3.10;0.30;;;27.20;99.90;;;;;;5035373;28;20189;-71
2021/07/26 09:58:35;;;;;;;0.30;0.30;;;27.20;99.90;;;;;;5017958;28;20198;-71
2021/07/26 10:01:02;;;;;;;0.88;0.50;;;26.90;98.50;;;;;;5036566;28;20207;-71
2021/07/26 10:03:28;;;;;;;0.65;0.57;;;27.20;99.90;;;;;;5036138;28;20266;-70
2021/07/26 10:05:54;;;;;;;0.25;0.25;;;27.50;99.90;;;;;;5036991;28;20244;-71
2021/07/26 10:08:21;;;;;;;2.75;1.30;;;28.00;98.00;;;;;;5037790;28;20204;-71
2021/07/26 10:10:47;;;;;;;0.75;0.50;;;27.90;98.10;;;;;;5036846;28;20207;-71
2021/07/26 10:13:13;;;;;;;0.10;0.10;;;28.30;98.90;;;;;;5036254;28;20205;-71
2021/07/26 10:15:40;;;;;;;0.20;0.20;;;28.30;96.70;;;;;;5034649;28;20516;-71
2021/07/26 10:18:06;;;;;;;0.30;0.30;;;28.40;95.20;;;;;;5037219;28;20205;-72
2021/07/26 10:20:48;;;;;;;1.08;0.22;;;28.60;94.90;;;;;;5033489;28;20204;-71
2021/07/26 10:23:20;;;;;;;1.27;0.40;;;28.20;93.10;;;;;;5037202;28;20217;-71
2021/07/26 10:26:14;;;;;;;0.45;0.35;;;27.90;94.50;;;;;;5036043;28;20205;-71
2021/07/26 10:28:44;;;;;;;0.45;0.45;;;27.60;94.70;;;;;;5018736;28;20299;-71
2021/07/26 10:31:28;;;;;;;1.90;0.77;;;27.50;95.70;;;;;;5030449;28;20224;-71
2021/07/26 10:34:09;;;;;;;0.95;0.68;;;27.10;97.30;;;;;;5012908;28;20213;-72
2021/07/26 10:36:41;;;;;;;0.75;0.30;;;27.10;95.90;;;;;;5036653;28;20627;-71
2021/07/26 10:39:08;;;;;;;0.10;0.10;;;27.10;95.80;;;;;;5016663;28;20198;-71
2021/07/26 10:41:42;;;;;;;0.13;0.13;;;26.90;96.70;;;;;;5036117;28;20569;-72
2021/07/26 10:44:28;;;;;;;0.73;0.60;;;26.90;97.30;;;;;;5037207;28;20671;-71
2021/07/26 10:46:55;;;;;;;1.40;0.70;;;26.90;95.70;;;;;;5023765;28;20233;-71
2021/07/26 10:49:42;;;;;;;0.28;0.28;;;26.70;97.00;;;;;;5019423;28;20316;-72
2021/07/26 10:52:09;;;;;;;0.30;0.30;;;26.60;96.20;;;;;;5023714;28;20719;-71
2021/07/26 10:54:36;;;;;;;0.10;0.10;;;26.80;97.30;;;;;;5039114;28;20549;-71
2021/07/26 10:57:06;;;;;;;0.60;0.40;;;26.80;97.20;;;;;;5039904;28;20290;-72
2021/07/26 11:00:07;;;;;;;1.17;0.55;;;27.10;97.20;;;;;;5022587;28;20216;-72
2021/07/26 11:02:37;;;;;;;1.55;0.60;;;26.90;97.90;;;;;;5041534;28;20212;-72
2021/07/26 11:05:28;;;;;;;0.20;0.20;;;26.70;97.70;;;;;;5018195;28;20243;-71
2021/07/26 11:08:12;;;;;;;0.70;0.40;;;26.60;97.70;;;;;;5039674;28;20251;-72
2021/07/26 11:10:43;;;;;;;4.50;1.58;;;26.50;97.70;;;;;;5040805;28;20269;-70
2021/07/26 11:13:08;;;;;;;0.13;0.13;;;26.20;99.40;;;;;;5043053;28;21413;-71
2021/07/26 11:15:47;;;;;;;0.45;0.40;;;25.90;98.60;;;;;;5042180;28;20208;-71
2021/07/26 11:18:37;;;;;;;0.70;0.35;;;25.60;99.60;;;;;;5040192;28;20585;-71
2021/07/26 11:21:21;;;;;;;0.10;0.10;;;25.50;99.00;;;;;;5040506;28;20225;-71
2021/07/26 11:23:50;;;;;;;4.40;0.52;;;25.40;99.80;;;;;;5040469;28;20209;-71
2021/07/26 11:26:17;;;;;;;0.90;0.50;;;25.30;99.90;;;;;;5035614;28;20197;-71
2021/07/26 11:28:44;;;;;;;2.53;0.50;;;25.40;99.90;;;;;;5037878;28;20233;-71
2021/07/26 11:31:10;;;;;;;0.20;0.20;;;25.70;99.80;;;;;;5038636;28;20209;-72
2021/07/26 11:33:36;;;;;;;1.35;0.30;;;26.00;99.90;;;;;;5035177;28;20209;-71
2021/07/26 11:36:04;;;;;;;0.88;0.70;;;26.40;99.70;;;;;;5038669;28;20620;-71
2021/07/26 11:38:30;;;;;;;0.43;0.38;;;26.40;99.90;;;;;;5038567;28;20632;-72
2021/07/26 11:40:56;;;;;;;0.55;0.55;;;26.30;99.50;;;;;;5035322;28;20252;-71
2021/07/26 11:43:35;;;;;;;0.75;0.60;;;26.10;99.10;;;;;;5037858;28;20229;-72
2021/07/26 11:46:02;;;;;;;0.35;0.35;;;25.80;99.90;;;;;;5032346;28;20206;-72
2021/07/26 11:48:28;;;;;;;0.70;0.52;;;25.90;99.90;;;;;;5022669;28;20197;-71
2021/07/26 11:50:54;;;;;;;1.52;0.98;;;26.10;99.90;;;;;;5041185;28;20224;-71
2021/07/26 11:53:30;;;;;;;6.15;0.35;;;26.30;99.90;;;;;;5038468;28;20204;-71
2021/07/26 11:55:56;;;;;;;0.65;0.40;;;26.20;99.90;;;;;;5037455;28;20303;-71
2021/07/26 11:58:28;;;;;;;0.88;0.55;;;26.10;99.90;;;;;;5040761;28;20200;-72
2021/07/26 12:00:55;;;;;;;0.30;0.30;;;26.00;99.90;;;;;;5037814;28;20198;-71
2021/07/26 12:03:23;;;;;;;0.25;0.25;;;26.00;99.90;;;;;;5022999;28;20185;-71
2021/07/26 12:06:01;;;;;;;0.20;0.20;;;25.80;99.90;;;;;;5021511;28;20225;-70
2021/07/26 12:08:28;;;;;;;0.30;0.28;;;25.90;99.90;;;;;;5038217;28;20193;-71
2021/07/26 12:10:54;;;;;;;2.60;1.02;;;25.80;99.90;;;;;;5039084;28;20273;-72
2021/07/26 12:13:21;;;;;;;0.38;0.30;;;25.70;99.90;;;;;;5039689;28;20284;-71
2021/07/26 12:15:48;;;;;;;0.32;0.32;;;25.60;99.90;;;;;;5038143;28;20197;-72
2021/07/26 12:18:16;;;;;;;1.10;0.95;;;25.50;99.90;;;;;;5021436;28;20267;-72
2021/07/26 12:20:44;;;;;;;0.30;0.30;;;25.50;99.90;;;;;;5037264;28;20217;-71
2021/07/26 12:23:30;;;;;;;1.55;0.95;;;25.30;99.90;;;;;;5034072;28;20205;-71
2021/07/26 12:26:06;;;;;;;0.28;0.28;;;25.00;99.90;;;;;;5039060;28;20198;-71
2021/07/26 12:28:50;;;;;;;0.65;0.65;;;24.90;99.90;;;;;;5034512;28;20280;-71
2021/07/26 12:31:29;;;;;;;0.40;0.40;;;24.70;99.90;;;;;;5034769;28;20213;-71
2021/07/26 12:34:21;;;;;;;0.20;0.20;;;24.50;99.90;;;;;;5034949;28;20984;-70
2021/07/26 12:36:47;;;;;;;0.77;0.60;;;24.30;99.90;;;;;;5010609;28;20201;-71
2021/07/26 12:39:14;;;;;;;0.57;0.57;;;24.20;99.90;;;;;;5038329;28;20833;-71
2021/07/26 12:41:51;;;;;;;0.30;0.30;;;23.90;99.90;;;;;;5019560;28;20193;-70
2021/07/26 12:44:26;;;;;;;0.73;0.45;;;23.70;99.90;;;;;;5016324;28;20722;-70
2021/07/26 12:46:53;;;;;;;0.30;0.30;;;23.60;99.90;;;;;;5021243;28;20255;-70
2021/07/26 12:49:21;;;;;;;0.40;0.40;;;23.60;99.90;;;;;;5035520;28;20601;-70
2021/07/26 12:51:49;;;;;;;0.40;0.40;;;23.70;99.90;;;;;;5037277;28;20205;-71
2021/07/26 12:54:15;;;;;;;1.05;0.80;;;23.70;99.90;;;;;;5038767;28;20244;-70
2021/07/26 12:56:41;;;;;;;0.40;0.40;;;23.60;99.90;;;;;;5039177;28;20213;-71
2021/07/26 12:59:07;;;;;;;0.60;0.60;;;23.10;99.90;;;;;;5035890;28;20198;-71